Time;durP1;ratioP1;P1;durP2;ratioP2;P2;SDS_P1;SDS_P2;PMS_P1;PMS_P2;Temp;Humidity;BMP_temperature;BMP_pressure;BME280_temperature;BME280_humidity;BME280_pressure;Samples;Min_cycle;Max_cycle;Signal;HPM_P1;HPM_P2
2021/07/04 00:02:09;;;;;;;9.57;8.57;;;12.50;99.90;;;;;;4994704;28;20142;-90
2021/07/04 00:04:36;;;;;;;10.50;9.45;;;12.60;99.90;;;;;;4996289;28;20050;-90
2021/07/04 00:07:03;;;;;;;9.80;8.80;;;12.50;99.90;;;;;;4994160;28;20418;-88
2021/07/04 00:09:30;;;;;;;10.40;9.40;;;12.40;99.90;;;;;;5003770;28;20118;-91
2021/07/04 00:11:57;;;;;;;11.98;9.88;;;12.30;99.90;;;;;;5013709;28;20114;-90
2021/07/04 00:14:24;;;;;;;10.60;9.70;;;12.30;99.90;;;;;;5005959;28;20133;-91
2021/07/04 00:16:51;;;;;;;11.02;9.65;;;12.40;99.90;;;;;;4995594;28;20050;-90
2021/07/04 00:19:18;;;;;;;11.10;9.93;;;12.40;99.90;;;;;;5000695;28;20142;-89
2021/07/04 00:21:45;;;;;;;11.25;9.57;;;12.30;99.90;;;;;;4995336;28;20076;-91
2021/07/04 00:24:12;;;;;;;10.43;9.38;;;12.30;99.90;;;;;;4994028;28;20141;-90
2021/07/04 00:26:39;;;;;;;10.30;9.32;;;12.30;99.90;;;;;;4994346;28;20056;-90
2021/07/04 00:29:06;;;;;;;9.75;8.80;;;12.30;99.90;;;;;;4993867;28;20092;-90
2021/07/04 00:31:33;;;;;;;12.35;9.30;;;12.30;99.90;;;;;;4994367;28;20497;-90
2021/07/04 00:34:01;;;;;;;10.10;9.18;;;12.30;99.90;;;;;;4994094;28;20085;-90
2021/07/04 00:36:28;;;;;;;9.57;8.80;;;12.30;99.90;;;;;;4994262;28;20138;-90
2021/07/04 00:38:55;;;;;;;10.68;9.60;;;12.20;99.90;;;;;;4994019;28;20486;-90
2021/07/04 00:41:22;;;;;;;12.18;9.18;;;12.20;99.90;;;;;;4994005;28;20488;-90
2021/07/04 00:43:48;;;;;;;11.00;9.68;;;12.30;99.90;;;;;;4993974;28;20053;-90
2021/07/04 00:46:15;;;;;;;12.10;9.48;;;12.20;99.90;;;;;;4993743;28;20050;-90
2021/07/04 00:48:42;;;;;;;10.80;9.43;;;12.20;99.90;;;;;;4994282;28;20525;-90
2021/07/04 00:51:09;;;;;;;10.30;9.35;;;12.20;99.90;;;;;;4993971;28;20060;-90
2021/07/04 00:53:38;;;;;;;13.10;10.45;;;12.10;99.90;;;;;;4993787;28;20054;-90
2021/07/04 00:56:05;;;;;;;11.60;9.65;;;12.10;99.90;;;;;;4993816;28;20046;-90
2021/07/04 00:58:32;;;;;;;13.63;10.15;;;12.10;99.90;;;;;;4994160;28;20505;-90
2021/07/04 01:01:00;;;;;;;10.43;9.32;;;12.10;99.90;;;;;;4993496;28;20452;-90
2021/07/04 01:03:27;;;;;;;11.85;10.35;;;12.10;99.90;;;;;;4993579;28;20051;-90
2021/07/04 01:05:56;;;;;;;10.95;9.73;;;12.10;99.90;;;;;;4993537;28;20491;-90
2021/07/04 01:08:23;;;;;;;13.57;9.90;;;12.20;99.90;;;;;;4994424;28;20133;-90
2021/07/04 01:10:50;;;;;;;11.32;10.23;;;12.20;99.90;;;;;;4993728;28;20384;-90
2021/07/04 01:13:18;;;;;;;10.90;9.90;;;12.20;99.90;;;;;;4993682;28;20579;-90
2021/07/04 01:15:45;;;;;;;10.35;9.27;;;12.20;99.90;;;;;;4993422;28;20043;-90
2021/07/04 01:18:12;;;;;;;11.23;10.13;;;12.10;99.90;;;;;;4993764;28;20062;-90
2021/07/04 01:20:40;;;;;;;10.50;9.40;;;12.20;99.90;;;;;;4993555;28;20052;-90
2021/07/04 01:23:13;;;;;;;12.45;9.45;;;12.20;99.90;;;;;;4993693;28;20054;-90
2021/07/04 01:25:46;;;;;;;11.38;10.18;;;12.20;99.90;;;;;;4993689;28;20057;-91
2021/07/04 01:28:13;;;;;;;11.85;10.30;;;12.10;99.90;;;;;;4993541;28;20061;-90
2021/07/04 01:30:42;;;;;;;10.38;9.38;;;12.10;99.90;;;;;;4993612;28;20064;-90
2021/07/04 01:33:08;;;;;;;12.45;9.55;;;12.20;99.90;;;;;;4993302;28;20054;-90
2021/07/04 01:35:35;;;;;;;10.25;9.35;;;12.10;99.90;;;;;;4993512;28;20050;-90
2021/07/04 01:38:02;;;;;;;12.93;10.13;;;12.20;99.90;;;;;;4996216;28;20064;-91
2021/07/04 01:40:33;;;;;;;10.27;9.35;;;12.10;99.90;;;;;;4995818;28;20137;-91
2021/07/04 01:43:01;;;;;;;11.35;10.15;;;12.20;99.90;;;;;;4993450;28;20201;-90
2021/07/04 01:45:28;;;;;;;10.20;9.23;;;12.20;99.90;;;;;;4993037;28;20058;-90
2021/07/04 01:47:55;;;;;;;10.68;9.65;;;12.20;99.90;;;;;;4993418;28;20058;-90
2021/07/04 01:50:28;;;;;;;12.57;10.00;;;12.20;99.90;;;;;;4995286;28;20505;-90
2021/07/04 01:52:55;;;;;;;10.88;9.75;;;12.10;99.90;;;;;;4997045;28;20052;-90
2021/07/04 01:55:23;;;;;;;10.95;9.95;;;12.10;99.90;;;;;;4997190;28;20388;-91
2021/07/04 01:57:52;;;;;;;10.75;9.73;;;12.20;99.90;;;;;;4996926;28;20065;-91
2021/07/04 02:00:25;;;;;;;11.02;9.52;;;12.20;99.90;;;;;;4997445;28;20056;-90
2021/07/04 02:02:54;;;;;;;12.25;10.15;;;12.10;99.90;;;;;;4996869;28;20072;-91
2021/07/04 02:05:21;;;;;;;11.88;10.57;;;12.10;99.90;;;;;;4996720;28;20050;-91
2021/07/04 02:07:49;;;;;;;14.27;10.43;;;12.00;99.90;;;;;;4996836;28;20126;-91
2021/07/04 02:10:22;;;;;;;12.13;10.52;;;11.90;99.90;;;;;;4996591;28;20518;-91
2021/07/04 02:12:49;;;;;;;11.95;10.68;;;12.00;99.90;;;;;;4996663;28;20125;-90
2021/07/04 02:15:19;;;;;;;13.80;10.07;;;12.00;99.90;;;;;;4996596;28;20054;-90
2021/07/04 02:17:47;;;;;;;12.15;10.95;;;12.00;99.90;;;;;;4996837;28;20136;-91
2021/07/04 02:20:14;;;;;;;12.55;10.82;;;12.10;99.90;;;;;;4996478;28;20144;-91
2021/07/04 02:22:41;;;;;;;13.20;10.27;;;12.00;99.90;;;;;;4996663;28;20054;-90
2021/07/04 02:25:09;;;;;;;13.55;10.85;;;12.00;99.90;;;;;;4996134;28;20054;-90
2021/07/04 02:27:35;;;;;;;12.43;11.25;;;11.90;99.90;;;;;;4996429;28;20069;-91
2021/07/04 02:30:03;;;;;;;12.80;10.75;;;11.90;99.90;;;;;;4996466;28;20072;-91
2021/07/04 02:32:30;;;;;;;12.90;11.07;;;11.90;99.90;;;;;;5015625;28;20066;-90
2021/07/04 02:34:57;;;;;;;11.88;10.68;;;12.00;99.90;;;;;;5015869;28;20117;-90
2021/07/04 02:37:24;;;;;;;10.75;9.73;;;11.90;99.90;;;;;;5007539;28;20070;-91
2021/07/04 02:39:51;;;;;;;11.93;10.82;;;12.00;99.90;;;;;;4996323;28;20054;-90
2021/07/04 02:42:17;;;;;;;14.60;10.50;;;11.90;99.90;;;;;;4996195;28;20551;-91
2021/07/04 02:44:44;;;;;;;12.32;11.00;;;11.90;99.90;;;;;;4996114;28;20050;-90
2021/07/04 02:47:11;;;;;;;15.50;11.75;;;11.90;99.90;;;;;;4996245;28;20461;-90
2021/07/04 02:49:38;;;;;;;12.60;11.30;;;11.90;99.90;;;;;;4996545;28;20070;-90
2021/07/04 02:52:05;;;;;;;11.90;10.73;;;11.90;99.90;;;;;;4996514;28;20395;-90
2021/07/04 02:54:31;;;;;;;11.55;10.27;;;11.70;99.90;;;;;;4996290;28;20056;-90
2021/07/04 02:57:05;;;;;;;12.52;11.23;;;11.70;99.90;;;;;;5000543;28;20056;-90
2021/07/04 02:59:32;;;;;;;12.30;11.10;;;11.70;99.90;;;;;;5001793;28;20070;-90
2021/07/04 03:01:59;;;;;;;12.00;10.80;;;11.50;99.90;;;;;;4995817;28;20072;-90
2021/07/04 03:04:26;;;;;;;12.02;10.85;;;11.40;99.90;;;;;;4995719;28;20058;-90
2021/07/04 03:06:55;;;;;;;14.88;12.45;;;11.40;99.90;;;;;;4995384;28;20054;-90
2021/07/04 03:09:21;;;;;;;14.20;12.07;;;11.30;99.90;;;;;;4995544;28;20054;-91
2021/07/04 03:11:49;;;;;;;15.20;11.82;;;11.30;99.90;;;;;;4995425;28;20236;-91
2021/07/04 03:14:16;;;;;;;13.13;11.80;;;11.30;99.90;;;;;;4995489;28;20050;-90
2021/07/04 03:16:43;;;;;;;19.35;13.18;;;11.40;99.90;;;;;;4995546;28;20560;-91
2021/07/04 03:19:09;;;;;;;16.65;12.90;;;11.40;99.90;;;;;;4995325;28;20060;-91
2021/07/04 03:21:36;;;;;;;13.95;12.45;;;11.40;99.90;;;;;;4995406;28;20472;-90
2021/07/04 03:24:03;;;;;;;15.38;12.25;;;11.40;99.90;;;;;;4995198;28;20489;-91
2021/07/04 03:26:30;;;;;;;16.20;13.60;;;11.50;99.90;;;;;;4995327;28;20050;-90
2021/07/04 03:28:56;;;;;;;14.25;12.63;;;11.40;99.90;;;;;;4995397;28;20050;-90
2021/07/04 03:31:23;;;;;;;14.77;12.70;;;11.50;99.90;;;;;;4995172;28;20050;-91
2021/07/04 03:33:50;;;;;;;15.75;12.50;;;11.50;99.90;;;;;;4995353;28;20097;-91
2021/07/04 03:36:17;;;;;;;17.30;12.43;;;11.40;99.90;;;;;;4995272;28;20074;-90
2021/07/04 03:38:44;;;;;;;16.80;12.57;;;11.40;99.90;;;;;;4995057;28;20053;-91
2021/07/04 03:41:10;;;;;;;18.08;12.52;;;11.50;99.90;;;;;;4995142;28;20050;-91
2021/07/04 03:43:37;;;;;;;14.43;11.60;;;11.50;99.90;;;;;;4994921;28;20463;-91
2021/07/04 03:46:04;;;;;;;14.10;12.05;;;11.70;99.90;;;;;;4994859;28;20459;-91
2021/07/04 03:48:31;;;;;;;12.18;11.02;;;11.80;99.90;;;;;;4995066;28;20056;-91
2021/07/04 03:50:57;;;;;;;11.75;10.52;;;11.90;99.90;;;;;;4994823;28;20046;-91
2021/07/04 03:53:24;;;;;;;13.35;11.07;;;12.00;99.90;;;;;;4994774;28;20137;-91
2021/07/04 03:55:51;;;;;;;11.38;10.27;;;12.10;99.90;;;;;;4994624;28;20517;-91
2021/07/04 03:58:17;;;;;;;11.70;10.48;;;12.10;99.90;;;;;;4994724;28;20141;-91
2021/07/04 04:00:44;;;;;;;11.00;9.90;;;12.20;99.90;;;;;;4994697;28;20076;-91
2021/07/04 04:03:11;;;;;;;11.77;10.18;;;12.20;99.90;;;;;;4994652;28;20057;-91
2021/07/04 04:05:38;;;;;;;10.93;9.82;;;12.20;99.90;;;;;;4994323;28;20080;-91
2021/07/04 04:08:06;;;;;;;10.45;9.52;;;12.30;99.90;;;;;;4994584;28;20057;-91
2021/07/04 04:10:34;;;;;;;10.82;9.18;;;12.30;99.90;;;;;;4994791;28;20142;-91
2021/07/04 04:13:01;;;;;;;10.48;9.48;;;12.40;99.90;;;;;;4993496;28;20056;-91
2021/07/04 04:15:28;;;;;;;15.02;10.18;;;12.40;99.90;;;;;;4994969;28;20133;-91
2021/07/04 04:17:57;;;;;;;10.52;9.52;;;12.50;99.90;;;;;;5000986;28;20108;-91
2021/07/04 04:20:25;;;;;;;13.55;9.20;;;12.50;99.90;;;;;;4996254;28;20074;-90
2021/07/04 04:22:51;;;;;;;11.15;9.35;;;12.50;99.90;;;;;;4994192;28;20072;-90
2021/07/04 04:25:18;;;;;;;10.63;9.27;;;12.70;99.90;;;;;;4994283;28;20073;-90
2021/07/04 04:27:45;;;;;;;10.13;9.13;;;12.80;99.90;;;;;;4994046;28;20054;-91
2021/07/04 04:30:13;;;;;;;9.35;8.55;;;12.80;99.90;;;;;;4994250;28;20058;-90
2021/07/04 04:32:39;;;;;;;8.70;7.90;;;12.90;99.90;;;;;;4994220;28;20047;-91
2021/07/04 04:35:09;;;;;;;9.30;7.60;;;13.00;99.90;;;;;;4994185;28;20086;-91
2021/07/04 04:37:37;;;;;;;8.00;7.32;;;13.10;99.90;;;;;;4994216;28;20096;-91
2021/07/04 04:40:06;;;;;;;8.38;7.43;;;13.20;99.90;;;;;;4994032;28;20464;-91
2021/07/04 04:42:34;;;;;;;8.30;7.40;;;13.30;99.90;;;;;;4994023;28;20399;-90
2021/07/04 04:45:01;;;;;;;9.43;7.50;;;13.30;99.90;;;;;;4993758;28;20104;-91
2021/07/04 04:47:28;;;;;;;8.48;7.70;;;13.40;99.90;;;;;;4994426;28;20487;-91
2021/07/04 04:49:55;;;;;;;10.73;8.57;;;13.50;99.90;;;;;;4994354;28;20137;-91
2021/07/04 04:52:21;;;;;;;8.52;7.63;;;13.60;99.90;;;;;;4994513;28;20110;-91
2021/07/04 04:54:48;;;;;;;8.88;7.72;;;13.80;99.90;;;;;;5009988;28;20058;-90
2021/07/04 04:57:15;;;;;;;8.32;7.47;;;13.80;99.90;;;;;;5011272;28;20069;-90
2021/07/04 04:59:42;;;;;;;11.18;8.38;;;13.90;99.90;;;;;;5004062;28;20469;-90
2021/07/04 05:02:09;;;;;;;9.25;7.40;;;14.00;99.90;;;;;;4993803;28;20487;-91
2021/07/04 05:04:35;;;;;;;7.43;6.70;;;14.10;99.90;;;;;;4993388;28;20494;-90
2021/07/04 05:07:02;;;;;;;8.10;7.30;;;14.30;99.90;;;;;;4993400;28;20050;-90
2021/07/04 05:09:30;;;;;;;7.55;6.95;;;14.30;99.90;;;;;;4993968;28;20141;-90
2021/07/04 05:11:56;;;;;;;7.05;6.45;;;14.40;99.90;;;;;;4993745;28;20133;-90
2021/07/04 05:14:23;;;;;;;7.05;6.38;;;14.50;99.90;;;;;;4993799;28;20058;-91
2021/07/04 05:16:50;;;;;;;7.80;7.00;;;14.60;99.90;;;;;;4993616;28;20054;-91
2021/07/04 05:19:17;;;;;;;7.22;6.53;;;14.50;99.90;;;;;;4993462;28;20054;-91
2021/07/04 05:21:43;;;;;;;6.85;6.25;;;14.60;99.90;;;;;;4993580;28;20246;-90
2021/07/04 05:24:12;;;;;;;7.25;6.55;;;14.70;99.90;;;;;;4993673;28;20042;-90
2021/07/04 05:26:39;;;;;;;8.32;6.57;;;14.80;99.90;;;;;;4997864;28;20077;-91
2021/07/04 05:29:06;;;;;;;7.32;6.60;;;14.90;99.90;;;;;;4997334;28;20491;-91
2021/07/04 05:31:34;;;;;;;8.40;7.70;;;15.10;99.90;;;;;;4997439;28;20058;-91
2021/07/04 05:34:01;;;;;;;7.80;6.20;;;15.20;99.90;;;;;;4997418;28;20459;-91
2021/07/04 05:36:28;;;;;;;6.50;6.00;;;15.20;99.90;;;;;;5001436;28;20129;-90
2021/07/04 05:38:54;;;;;;;8.60;6.47;;;15.40;99.90;;;;;;5002775;28;20156;-90
2021/07/04 05:41:21;;;;;;;8.82;5.55;;;15.80;99.90;;;;;;4997325;28;20050;-90
2021/07/04 05:43:49;;;;;;;5.43;5.03;;;16.20;99.90;;;;;;4997280;28;20232;-91
2021/07/04 05:46:16;;;;;;;5.53;5.07;;;16.40;99.90;;;;;;4997128;28;20133;-90
2021/07/04 05:48:45;;;;;;;6.32;5.60;;;16.60;99.90;;;;;;4997159;28;20057;-90
2021/07/04 05:51:12;;;;;;;6.22;5.20;;;16.90;99.90;;;;;;4997217;28;20058;-90
2021/07/04 05:53:39;;;;;;;9.98;5.05;;;17.30;99.90;;;;;;4996908;28;20447;-90
2021/07/04 05:56:05;;;;;;;6.63;4.60;;;17.80;99.90;;;;;;4997104;28;20062;-91
2021/07/04 05:58:32;;;;;;;6.65;4.80;;;18.00;99.90;;;;;;4997188;28;20137;-91
2021/07/04 06:00:59;;;;;;;4.88;4.47;;;18.30;99.90;;;;;;4996805;28;20455;-90
2021/07/04 06:03:26;;;;;;;7.43;4.50;;;18.60;99.90;;;;;;4996867;28;20061;-91
2021/07/04 06:05:53;;;;;;;4.65;4.35;;;18.80;99.90;;;;;;4996202;28;20084;-91
2021/07/04 06:08:19;;;;;;;5.13;4.63;;;19.00;99.90;;;;;;4995759;28;20129;-90
2021/07/04 06:10:50;;;;;;;7.88;4.63;;;19.10;99.90;;;;;;4995597;28;20140;-90
2021/07/04 06:13:18;;;;;;;7.30;4.75;;;19.30;99.90;;;;;;4995571;28;20132;-89
2021/07/04 06:15:46;;;;;;;6.70;4.57;;;19.70;99.90;;;;;;4995701;28;20479;-90
2021/07/04 06:18:13;;;;;;;4.35;4.00;;;20.10;99.90;;;;;;4995528;28;20499;-90
2021/07/04 06:20:40;;;;;;;7.25;4.90;;;20.20;99.90;;;;;;4995448;28;20057;-91
2021/07/04 06:23:06;;;;;;;5.28;4.60;;;20.30;99.90;;;;;;4995247;28;20046;-91
2021/07/04 06:25:33;;;;;;;4.82;4.50;;;20.20;99.90;;;;;;4995502;28;20491;-90
2021/07/04 06:28:00;;;;;;;6.30;4.50;;;20.10;99.90;;;;;;4993938;28;20085;-91
2021/07/04 06:30:27;;;;;;;6.72;4.35;;;20.20;99.90;;;;;;4994638;28;20458;-90
2021/07/04 06:32:54;;;;;;;5.22;4.63;;;20.30;99.90;;;;;;4994623;28;20061;-91
2021/07/04 06:35:21;;;;;;;4.72;4.32;;;21.00;99.90;;;;;;4994184;28;20050;-92
2021/07/04 06:37:48;;;;;;;4.95;3.95;;;21.40;99.90;;;;;;4994560;28;20149;-91
2021/07/04 06:40:15;;;;;;;5.35;4.25;;;21.70;99.90;;;;;;4994476;28;20068;-91
2021/07/04 06:42:42;;;;;;;5.03;4.50;;;22.20;99.90;;;;;;4994505;28;20076;-91
2021/07/04 06:45:11;;;;;;;9.68;4.25;;;22.80;99.90;;;;;;4994246;28;20137;-91
2021/07/04 06:47:46;;;;;;;6.30;4.10;;;23.80;99.90;;;;;;4994433;28;20077;-92
2021/07/04 06:50:15;;;;;;;6.88;4.10;;;25.10;99.90;;;;;;4994285;28;20057;-90
2021/07/04 06:52:42;;;;;;;7.72;4.05;;;26.10;99.90;;;;;;4994448;28;20053;-90
2021/07/04 06:55:10;;;;;;;8.32;4.07;;;26.60;99.90;;;;;;4995801;28;20050;-90
2021/07/04 06:57:37;;;;;;;4.38;4.05;;;26.70;99.90;;;;;;5005776;28;20074;-90
2021/07/04 07:00:15;;;;;;;6.35;4.05;;;26.70;99.10;;;;;;4996284;28;20054;-89
2021/07/04 07:02:42;;;;;;;4.20;3.80;;;26.50;99.10;;;;;;4993895;28;20563;-90
2021/07/04 07:05:11;;;;;;;9.68;3.95;;;26.50;99.80;;;;;;4993757;28;20065;-90
2021/07/04 07:07:39;;;;;;;11.82;4.68;;;26.80;98.30;;;;;;4953665;28;1183143;-89
2021/07/04 07:10:08;;;;;;;8.90;4.18;;;27.10;97.90;;;;;;4995185;28;20072;-89
2021/07/04 07:12:35;;;;;;;13.73;4.25;;;27.30;97.50;;;;;;4995298;28;20487;-90
2021/07/04 07:15:03;;;;;;;9.52;4.18;;;27.50;96.40;;;;;;4995018;28;20046;-90
2021/07/04 07:17:29;;;;;;;5.63;4.20;;;27.60;95.90;;;;;;4996177;28;20057;-90
2021/07/04 07:19:56;;;;;;;4.47;3.63;;;27.50;96.10;;;;;;5005791;28;20050;-89
2021/07/04 07:22:23;;;;;;;5.97;3.78;;;27.50;95.70;;;;;;5008776;28;20061;-90
2021/07/04 07:24:50;;;;;;;5.95;3.92;;;27.60;95.10;;;;;;4999054;28;20076;-90
2021/07/04 07:27:16;;;;;;;3.97;3.70;;;27.70;95.60;;;;;;4994623;28;20133;-90
2021/07/04 07:29:44;;;;;;;9.88;4.28;;;28.40;94.80;;;;;;4994529;28;20144;-90
2021/07/04 07:32:11;;;;;;;7.07;4.68;;;28.60;93.40;;;;;;4994307;28;20046;-90
2021/07/04 07:34:38;;;;;;;4.95;4.00;;;28.60;94.00;;;;;;4994770;28;20065;-91
2021/07/04 07:37:05;;;;;;;6.03;4.18;;;28.90;93.30;;;;;;4994481;28;20054;-91
2021/07/04 07:39:32;;;;;;;7.45;3.97;;;29.30;92.10;;;;;;4994414;28;20054;-89
2021/07/04 07:41:59;;;;;;;4.22;3.83;;;29.70;90.80;;;;;;4994466;28;20065;-92
2021/07/04 07:44:26;;;;;;;7.68;4.25;;;30.60;89.40;;;;;;4994261;28;20062;-90
2021/07/04 07:46:52;;;;;;;5.90;4.03;;;31.00;86.60;;;;;;4993990;28;20058;-91
2021/07/04 07:49:19;;;;;;;7.18;4.20;;;32.40;80.50;;;;;;4994421;28;20108;-90
2021/07/04 07:51:49;;;;;;;7.93;4.07;;;33.10;79.30;;;;;;4994170;28;20050;-88
2021/07/04 07:54:17;;;;;;;9.13;4.70;;;32.90;76.50;;;;;;4993950;28;20473;-90
2021/07/04 07:56:44;;;;;;;8.90;4.72;;;33.60;73.50;;;;;;4994754;28;20133;-91
2021/07/04 07:59:13;;;;;;;9.68;4.35;;;34.60;70.50;;;;;;4994786;28;20050;-89
2021/07/04 08:01:40;;;;;;;6.88;4.22;;;35.10;67.20;;;;;;4994616;28;20491;-90
2021/07/04 08:04:07;;;;;;;6.35;4.50;;;35.30;65.30;;;;;;4994568;28;20054;-90
2021/07/04 08:06:34;;;;;;;7.13;4.68;;;36.10;61.90;;;;;;4994330;28;20054;-90
2021/07/04 08:09:02;;;;;;;9.40;4.80;;;35.70;60.70;;;;;;4994471;28;20050;-90
2021/07/04 08:11:29;;;;;;;6.00;4.40;;;35.50;61.40;;;;;;4994352;28;20061;-89
2021/07/04 08:13:55;;;;;;;11.63;4.68;;;35.00;61.00;;;;;;4994320;28;20141;-91
2021/07/04 08:16:22;;;;;;;9.07;4.25;;;35.60;61.80;;;;;;4994885;28;20054;-90
2021/07/04 08:18:49;;;;;;;6.78;4.25;;;35.60;61.80;;;;;;5001878;28;20118;-89
2021/07/04 08:21:16;;;;;;;4.90;4.35;;;35.60;62.70;;;;;;4997641;28;20478;-88
2021/07/04 08:23:43;;;;;;;4.22;3.80;;;36.60;60.40;;;;;;4994324;28;20506;-88
2021/07/04 08:26:10;;;;;;;4.40;4.00;;;39.00;57.30;;;;;;4993919;28;20085;-90
2021/07/04 08:28:37;;;;;;;4.95;3.78;;;40.40;54.50;;;;;;4994219;28;20050;-88
2021/07/04 08:31:04;;;;;;;4.07;3.88;;;39.00;54.10;;;;;;4994150;28;20050;-90
2021/07/04 08:33:30;;;;;;;4.03;3.72;;;37.60;52.80;;;;;;4994211;28;20131;-87
2021/07/04 08:35:57;;;;;;;3.95;3.75;;;37.90;54.40;;;;;;4993993;28;20410;-90
2021/07/04 08:38:24;;;;;;;6.03;3.90;;;38.40;54.60;;;;;;4993946;28;20046;-87
2021/07/04 08:40:51;;;;;;;3.80;3.50;;;39.10;54.00;;;;;;4994052;28;20101;-87
2021/07/04 08:43:26;;;;;;;5.50;4.43;;;40.30;52.40;;;;;;4993899;28;20042;-89
2021/07/04 08:45:53;;;;;;;4.40;4.03;;;40.10;50.90;;;;;;4993801;28;20414;-88
2021/07/04 08:48:20;;;;;;;3.78;3.42;;;39.90;51.70;;;;;;4993953;28;20050;-88
2021/07/04 08:50:47;;;;;;;4.20;3.80;;;39.60;51.70;;;;;;4993692;28;20137;-86
2021/07/04 08:53:14;;;;;;;4.05;3.75;;;38.40;52.20;;;;;;4993828;28;20141;-93
2021/07/04 08:55:43;;;;;;;3.92;3.63;;;39.10;52.20;;;;;;4993939;28;20141;-90
2021/07/04 08:58:10;;;;;;;6.55;3.60;;;40.30;51.00;;;;;;4993932;28;20077;-88
2021/07/04 09:00:38;;;;;;;4.63;3.78;;;42.10;48.80;;;;;;4994020;28;20137;-88
2021/07/04 09:03:24;;;;;;;5.30;3.42;;;40.30;47.10;;;;;;4993777;28;20547;-90
2021/07/04 09:05:51;;;;;;;4.60;4.15;;;40.80;46.20;;;;;;4993207;28;20054;-88
2021/07/04 09:08:19;;;;;;;7.00;3.83;;;40.90;46.40;;;;;;4994698;28;20137;-90
2021/07/04 09:11:10;;;;;;;5.78;3.50;;;41.20;44.00;;;;;;4993858;28;20055;-90
2021/07/04 09:13:38;;;;;;;3.30;3.10;;;40.70;44.80;;;;;;4993534;28;20047;-91
2021/07/04 09:16:09;;;;;;;3.00;2.90;;;39.50;45.70;;;;;;4993542;28;20054;-93
2021/07/04 09:18:37;;;;;;;9.20;3.97;;;39.20;45.20;;;;;;4993940;28;20046;-92
2021/07/04 09:21:21;;;;;;;4.10;3.13;;;37.90;45.40;;;;;;4993621;28;20558;-89
2021/07/04 09:23:49;;;;;;;3.45;3.25;;;38.30;46.90;;;;;;4993797;28;20060;-91
2021/07/04 09:26:37;;;;;;;3.22;3.03;;;40.30;45.50;;;;;;4993742;28;20057;-94
2021/07/04 09:29:04;;;;;;;3.38;3.17;;;41.20;44.00;;;;;;4993395;28;20137;-88
2021/07/04 09:31:31;;;;;;;3.38;3.08;;;41.80;44.00;;;;;;4993418;28;20604;-88
2021/07/04 09:34:12;;;;;;;2.83;2.38;;;42.50;41.90;;;;;;4993600;28;20050;-88
2021/07/04 09:36:40;;;;;;;3.25;2.50;;;42.80;41.00;;;;;;4993728;28;20057;-86
2021/07/04 09:39:19;;;;;;;2.55;2.38;;;42.80;41.10;;;;;;4997468;28;20054;-88
2021/07/04 09:42:10;;;;;;;3.00;2.80;;;42.40;40.70;;;;;;4995149;28;20518;-87
2021/07/04 09:44:38;;;;;;;3.05;2.90;;;43.10;42.10;;;;;;4994506;28;20054;-86
2021/07/04 09:47:20;;;;;;;2.70;2.50;;;45.00;39.10;;;;;;4996304;28;20055;-89
2021/07/04 09:49:47;;;;;;;3.20;3.00;;;42.00;40.20;;;;;;4993983;28;20068;-89
2021/07/04 09:52:20;;;;;;;2.80;2.47;;;42.40;41.20;;;;;;4993446;28;20123;-90
2021/07/04 09:55:01;;;;;;;2.87;2.67;;;43.20;41.60;;;;;;4993428;28;20153;-90
2021/07/04 09:57:48;;;;;;;4.03;3.15;;;42.70;40.90;;;;;;4993425;28;20422;-93
2021/07/04 10:00:17;;;;;;;3.30;3.10;;;40.80;41.80;;;;;;4993933;28;20051;-89
2021/07/04 10:03:04;;;;;;;3.85;3.25;;;38.60;44.50;;;;;;4993863;28;20060;-90
2021/07/04 10:05:31;;;;;;;3.20;2.90;;;36.70;45.20;;;;;;4992963;28;20051;-89
2021/07/04 10:07:58;;;;;;;2.80;2.70;;;35.70;46.40;;;;;;4993097;28;20046;-89
2021/07/04 10:10:25;;;;;;;3.40;3.20;;;35.00;49.40;;;;;;4993756;28;20082;-88
2021/07/04 10:12:54;;;;;;;3.22;3.03;;;34.10;50.50;;;;;;4996843;28;20050;-91
2021/07/04 10:15:21;;;;;;;3.45;3.13;;;32.70;51.70;;;;;;4996954;28;20052;-90
2021/07/04 10:17:49;;;;;;;3.47;3.28;;;32.30;52.30;;;;;;4996568;28;20109;-87
2021/07/04 10:20:16;;;;;;;3.42;3.15;;;33.30;51.90;;;;;;4997053;28;20118;-89
2021/07/04 10:22:43;;;;;;;4.95;3.00;;;33.10;50.90;;;;;;4996596;28;20054;-89
2021/07/04 10:25:10;;;;;;;31.65;6.25;;;33.00;52.00;;;;;;4996159;28;20054;-90
2021/07/04 10:27:39;;;;;;;8.57;3.25;;;32.70;52.50;;;;;;4996714;28;20491;-88
2021/07/04 10:30:07;;;;;;;11.00;3.88;;;32.40;52.60;;;;;;4996338;28;20054;-89
2021/07/04 10:32:34;;;;;;;9.95;3.70;;;32.10;52.50;;;;;;4996206;28;20107;-89
2021/07/04 10:35:09;;;;;;;4.18;3.45;;;31.80;53.90;;;;;;4996461;28;20047;-88
2021/07/04 10:37:39;;;;;;;3.83;3.53;;;31.50;53.80;;;;;;4996157;28;20137;-88
2021/07/04 10:40:08;;;;;;;4.03;3.10;;;31.30;55.40;;;;;;4996212;28;20050;-88
2021/07/04 10:42:42;;;;;;;3.50;3.30;;;31.00;56.30;;;;;;4996360;28;20526;-88
2021/07/04 10:45:32;;;;;;;3.95;3.65;;;30.90;56.00;;;;;;4996012;28;20133;-88
2021/07/04 10:48:20;;;;;;;3.13;2.97;;;30.60;56.50;;;;;;4996009;28;20054;-89
2021/07/04 10:51:09;;;;;;;3.03;2.80;;;30.30;57.80;;;;;;4996105;28;20069;-89
2021/07/04 10:53:43;;;;;;;3.08;2.95;;;30.20;57.80;;;;;;4995894;28;20056;-88
2021/07/04 10:56:34;;;;;;;3.38;3.17;;;30.00;57.40;;;;;;4995987;28;20066;-89
2021/07/04 10:59:10;;;;;;;4.50;3.13;;;29.70;59.00;;;;;;4999571;28;20058;-87
2021/07/04 11:01:48;;;;;;;4.63;3.22;;;29.20;58.90;;;;;;5001340;28;20060;-87
2021/07/04 11:04:28;;;;;;;3.55;3.35;;;28.50;60.20;;;;;;4995876;28;20510;-88
2021/07/04 11:06:56;;;;;;;3.97;3.75;;;27.90;63.50;;;;;;4995171;28;20058;-88
2021/07/04 11:09:24;;;;;;;3.70;3.40;;;27.80;63.20;;;;;;4995698;28;20056;-89
2021/07/04 11:11:50;;;;;;;4.50;3.92;;;27.70;65.10;;;;;;4995437;28;20050;-88
2021/07/04 11:14:17;;;;;;;4.35;4.03;;;27.40;65.90;;;;;;4995463;28;20057;-88
2021/07/04 11:17:03;;;;;;;4.60;3.47;;;27.00;65.50;;;;;;4995363;28;20050;-88
2021/07/04 11:19:30;;;;;;;4.07;3.78;;;26.60;68.00;;;;;;4994822;28;20062;-87
2021/07/04 11:21:57;;;;;;;4.82;4.43;;;26.40;70.00;;;;;;4994078;28;20060;-86
2021/07/04 11:24:26;;;;;;;4.20;3.90;;;26.10;71.40;;;;;;4996180;28;20046;-88
2021/07/04 11:27:15;;;;;;;6.18;5.68;;;25.90;73.00;;;;;;4994465;28;20082;-88
2021/07/04 11:30:17;;;;;;;5.43;5.03;;;25.70;75.00;;;;;;4994985;28;20141;-88
2021/07/04 11:32:44;;;;;;;3.92;3.67;;;25.60;76.80;;;;;;4988670;28;20053;-88
2021/07/04 11:35:12;;;;;;;4.90;4.50;;;25.40;75.70;;;;;;4994809;28;20418;-88
2021/07/04 11:37:41;;;;;;;3.90;3.60;;;25.20;79.40;;;;;;4995039;28;20534;-87
2021/07/04 11:40:09;;;;;;;4.20;3.90;;;25.10;81.10;;;;;;4994826;28;20487;-89
2021/07/04 11:42:36;;;;;;;11.50;4.88;;;24.80;81.60;;;;;;4994744;28;20050;-88
2021/07/04 11:45:16;;;;;;;29.90;6.82;;;24.20;99.90;;;;;;4994484;28;20137;-87
2021/07/04 11:47:59;;;;;;;13.10;5.15;;;23.40;99.90;;;;;;4995530;28;20089;-86
2021/07/04 11:50:25;;;;;;;83.68;12.65;;;22.80;99.90;;;;;;4995489;28;20173;-88
2021/07/04 11:53:05;;;;;;;27.20;7.45;;;22.20;99.90;;;;;;4995624;28;20410;-88
2021/07/04 11:55:32;;;;;;;13.55;6.60;;;21.10;99.90;;;;;;4993245;28;20104;-88
2021/07/04 11:57:59;;;;;;;37.60;8.93;;;20.40;99.90;;;;;;4994638;28;20042;-86
2021/07/04 12:00:32;;;;;;;33.33;8.95;;;19.90;99.90;;;;;;4995451;28;20425;-86
2021/07/04 12:02:59;;;;;;;16.50;8.27;;;19.60;99.90;;;;;;4995416;28;20479;-87
2021/07/04 12:05:31;;;;;;;16.48;9.75;;;19.60;99.90;;;;;;4995050;28;20323;-86
2021/07/04 12:07:58;;;;;;;13.55;8.73;;;19.60;99.90;;;;;;4994314;28;20054;-86
2021/07/04 12:10:25;;;;;;;18.48;9.55;;;19.60;99.90;;;;;;4994406;28;20056;-87
2021/07/04 12:12:54;;;;;;;23.13;8.95;;;19.60;99.90;;;;;;4995173;28;20168;-84
2021/07/04 12:15:21;;;;;;;19.70;8.68;;;19.40;99.90;;;;;;4994194;28;20053;-89
2021/07/04 12:17:49;;;;;;;9.80;5.40;;;19.20;99.90;;;;;;4995512;28;20088;-83
2021/07/04 12:20:19;;;;;;;35.08;7.05;;;18.80;99.90;;;;;;4997220;28;20097;-85
2021/07/04 12:23:02;;;;;;;5.25;4.50;;;18.40;99.90;;;;;;5003969;28;20138;-87
2021/07/04 12:25:43;;;;;;;13.38;5.43;;;17.90;99.90;;;;;;4994358;28;20050;-86
2021/07/04 12:28:15;;;;;;;8.73;4.95;;;17.40;99.90;;;;;;4994616;28;20532;-91
2021/07/04 12:30:48;;;;;;;17.02;6.72;;;17.10;99.90;;;;;;4993885;28;20553;-94
2021/07/04 12:33:17;;;;;;;14.20;6.90;;;16.80;99.90;;;;;;4994896;28;20154;-94
2021/07/04 12:36:07;;;;;;;24.48;9.15;;;16.70;99.90;;;;;;4994297;28;20118;-93
2021/07/04 12:38:37;;;;;;;15.80;8.95;;;16.60;99.90;;;;;;4997643;28;20046;-90
2021/07/04 12:41:14;;;;;;;14.13;8.55;;;16.60;99.90;;;;;;5005391;28;20054;-93
2021/07/04 12:47:32;;;;;;;10.07;7.15;;;16.70;99.90;;;;;;6079799;22;20086;-96
2021/07/04 12:50:16;;;;;;;13.75;8.05;;;16.70;99.90;;;;;;4994954;28;20058;-93
2021/07/04 12:52:59;;;;;;;13.35;8.18;;;16.70;99.90;;;;;;4994366;28;20081;-94
2021/07/04 12:55:45;;;;;;;20.95;9.23;;;16.80;99.90;;;;;;4995341;28;20080;-96